createdAt,value
2022-11-17T00:00:39.732Z,14.93
2022-11-17T00:03:07.015Z,14.95
2022-11-17T00:05:35.860Z,14.70
2022-11-17T00:08:03.113Z,16.05
2022-11-17T00:10:30.391Z,15.10
2022-11-17T00:13:16.242Z,14.02
2022-11-17T00:15:44.581Z,15.03
2022-11-17T00:18:30.258Z,14.90
2022-11-17T00:21:16.425Z,14.50
2022-11-17T00:23:50.365Z,14.43
2022-11-17T00:26:22.858Z,14.13
2022-11-17T00:28:57.638Z,15.15
2022-11-17T00:31:45.395Z,14.70
2022-11-17T00:34:16.228Z,13.95
2022-11-17T00:36:46.281Z,15.65
2022-11-17T00:39:15.095Z,15.80
2022-11-17T00:41:42.780Z,15.13
2022-11-17T00:44:10.759Z,14.27
2022-11-17T00:46:38.808Z,14.23
2022-11-17T00:49:07.222Z,14.45
2022-11-17T00:51:35.159Z,14.85
2022-11-17T00:54:02.653Z,14.70
2022-11-17T00:56:30.160Z,13.93
2022-11-17T00:58:57.879Z,15.13
2022-11-17T01:01:25.830Z,14.82
2022-11-17T01:04:03.368Z,14.80
2022-11-17T01:06:40.893Z,14.32
2022-11-17T01:09:16.556Z,15.10
2022-11-17T01:11:44.252Z,14.32
2022-11-17T01:14:14.136Z,14.43
2022-11-17T01:16:41.872Z,14.98
2022-11-17T01:19:11.926Z,14.20
2022-11-17T01:21:39.324Z,14.20
2022-11-17T01:24:06.911Z,13.35
2022-11-17T01:26:36.287Z,12.65
2022-11-17T01:29:04.737Z,13.88
2022-11-17T01:31:34.922Z,12.88
2022-11-17T01:34:02.282Z,12.48
2022-11-17T01:36:57.676Z,12.63
2022-11-17T01:39:26.847Z,12.48
2022-11-17T01:41:55.017Z,12.25
2022-11-17T01:44:49.669Z,12.65
2022-11-17T01:47:26.479Z,13.30
2022-11-17T01:50:20.070Z,13.50
2022-11-17T01:52:50.421Z,12.80
2022-11-17T01:55:21.372Z,14.60
2022-11-17T01:57:59.402Z,14.05
2022-11-17T02:00:27.490Z,14.35
2022-11-17T02:02:54.800Z,13.68
2022-11-17T02:05:21.966Z,14.25
2022-11-17T02:07:52.626Z,13.80
2022-11-17T02:10:20.024Z,14.38
2022-11-17T02:12:48.813Z,15.63
2022-11-17T02:15:16.252Z,15.57
2022-11-17T02:17:43.905Z,14.82
2022-11-17T02:20:23.567Z,14.52
2022-11-17T02:23:21.738Z,14.65
2022-11-17T02:26:07.659Z,14.77
2022-11-17T02:28:38.124Z,14.40
2022-11-17T02:31:29.781Z,14.50
2022-11-17T02:34:21.602Z,13.38
2022-11-17T02:36:58.859Z,13.32
2022-11-17T02:39:47.280Z,12.27
2022-11-17T02:42:57.984Z,12.27
2022-11-17T02:45:33.421Z,12.55
2022-11-17T02:48:05.523Z,13.30
2022-11-17T02:50:36.360Z,13.52
2022-11-17T02:53:04.756Z,13.25
2022-11-17T02:55:35.369Z,13.35
2022-11-17T02:58:02.592Z,13.00
2022-11-17T03:00:34.331Z,13.32
2022-11-17T03:03:18.179Z,14.30
2022-11-17T03:06:24.767Z,13.57
2022-11-17T03:09:04.229Z,13.27
2022-11-17T03:11:58.412Z,13.82
2022-11-17T03:14:50.216Z,15.38
2022-11-17T03:17:59.757Z,16.10
2022-11-17T03:20:47.567Z,18.35
2022-11-17T03:23:21.256Z,18.33
2022-11-17T03:25:54.816Z,17.50
2022-11-17T03:28:27.077Z,16.38
2022-11-17T03:30:55.924Z,17.10
2022-11-17T03:33:25.580Z,16.00
2022-11-17T03:35:58.604Z,15.40
2022-11-17T03:38:29.768Z,16.05
2022-11-17T03:41:03.152Z,15.90
2022-11-17T03:43:32.451Z,17.08
2022-11-17T03:46:07.256Z,17.58
2022-11-17T03:48:50.973Z,17.85
2022-11-17T03:51:26.142Z,16.63
2022-11-17T03:53:54.670Z,16.67
2022-11-17T03:56:54.095Z,16.20
2022-11-17T03:59:33.767Z,16.67
2022-11-17T04:02:01.043Z,16.65
2022-11-17T04:04:48.350Z,17.52
2022-11-17T04:07:15.663Z,16.70
2022-11-17T04:09:43.046Z,17.00
2022-11-17T04:12:28.988Z,16.52
2022-11-17T04:15:14.946Z,17.23
2022-11-17T04:17:42.227Z,16.45
2022-11-17T04:20:10.121Z,17.38
2022-11-17T04:22:37.326Z,17.60
2022-11-17T04:25:04.873Z,17.08
2022-11-17T04:27:50.685Z,17.02
2022-11-17T04:30:18.002Z,19.02
2022-11-17T04:32:45.241Z,20.50
2022-11-17T04:35:12.470Z,19.67
2022-11-17T04:37:39.678Z,20.83
2022-11-17T04:40:07.814Z,19.33
2022-11-17T04:42:35.019Z,20.08
2022-11-17T04:45:02.305Z,21.00
2022-11-17T04:47:29.543Z,20.38
2022-11-17T04:49:56.758Z,20.83
2022-11-17T04:52:29.489Z,19.63
2022-11-17T04:54:57.176Z,19.10
2022-11-17T04:57:24.574Z,18.33
2022-11-17T04:59:51.867Z,18.63
2022-11-17T05:02:19.174Z,18.98
2022-11-17T05:04:55.893Z,19.25
2022-11-17T05:07:24.207Z,17.90
2022-11-17T05:09:51.441Z,17.00
2022-11-17T05:12:37.452Z,17.67
2022-11-17T05:15:05.127Z,16.38
2022-11-17T05:17:32.424Z,16.25
2022-11-17T05:19:59.690Z,16.33
2022-11-17T05:22:45.572Z,16.48
2022-11-17T05:25:12.774Z,16.48
2022-11-17T05:27:40.092Z,18.20
2022-11-17T05:30:08.450Z,18.52
2022-11-17T05:32:35.713Z,18.88
2022-11-17T05:35:02.974Z,17.58
2022-11-17T05:37:30.191Z,17.58
2022-11-17T05:39:57.452Z,18.27
2022-11-17T05:42:24.712Z,20.27
2022-11-17T05:44:52.035Z,18.50
2022-11-17T05:47:19.296Z,21.30
2022-11-17T05:49:46.555Z,21.15
2022-11-17T05:52:13.822Z,22.10
2022-11-17T05:54:41.161Z,21.73
2022-11-17T05:57:16.737Z,21.65
2022-11-17T05:59:46.952Z,21.38
2022-11-17T06:02:21.926Z,20.05
2022-11-17T06:04:50.186Z,18.75
2022-11-17T06:07:19.421Z,18.38
2022-11-17T06:09:47.668Z,18.73
2022-11-17T06:12:15.480Z,19.25
2022-11-17T06:14:43.053Z,18.95
2022-11-17T06:17:27.568Z,18.50
2022-11-17T06:20:02.899Z,19.75
2022-11-17T06:22:30.687Z,19.15
2022-11-17T06:24:58.619Z,18.27
2022-11-17T06:27:26.643Z,19.05
2022-11-17T06:29:55.310Z,19.15
2022-11-17T06:32:22.845Z,18.98
2022-11-17T06:34:55.680Z,18.88
2022-11-17T06:37:25.262Z,18.83
2022-11-17T06:39:52.861Z,18.70
2022-11-17T06:42:40.071Z,19.08
2022-11-17T06:45:08.043Z,19.05
2022-11-17T06:47:35.272Z,18.42
2022-11-17T06:50:02.860Z,18.15
2022-11-17T06:52:30.120Z,18.48
2022-11-17T06:54:57.458Z,19.15
2022-11-17T06:57:24.804Z,18.70
2022-11-17T06:59:52.616Z,19.55
2022-11-17T07:02:20.458Z,19.67
2022-11-17T07:04:47.775Z,18.63
2022-11-17T07:07:15.071Z,18.58
2022-11-17T07:09:42.458Z,19.45
2022-11-17T07:12:09.777Z,21.15
2022-11-17T07:14:37.243Z,20.50
2022-11-17T07:17:04.590Z,20.45
2022-11-17T07:19:31.852Z,20.67
2022-11-17T07:21:59.219Z,20.40
2022-11-17T07:24:26.511Z,19.38
2022-11-17T07:26:54.193Z,19.48
2022-11-17T07:29:21.554Z,18.98
2022-11-17T07:31:48.875Z,20.20
2022-11-17T07:34:16.397Z,20.27
2022-11-17T07:36:43.652Z,19.67
2022-11-17T07:39:10.966Z,20.75
2022-11-17T07:41:38.484Z,20.20
2022-11-17T07:44:06.021Z,20.67
2022-11-17T07:46:33.482Z,19.63
2022-11-17T07:49:00.871Z,19.45
2022-11-17T07:51:28.352Z,20.38
2022-11-17T07:53:55.846Z,21.48
2022-11-17T07:56:25.618Z,20.98
2022-11-17T07:58:54.498Z,21.27
2022-11-17T08:01:21.823Z,21.70
2022-11-17T08:03:49.294Z,21.55
2022-11-17T08:06:17.039Z,21.50
2022-11-17T08:08:44.412Z,22.33
2022-11-17T08:11:12.968Z,21.15
2022-11-17T08:13:41.429Z,20.35
2022-11-17T08:16:10.246Z,19.00
2022-11-17T08:18:38.405Z,18.80
2022-11-17T08:21:14.721Z,19.38
2022-11-17T08:23:42.584Z,17.92
2022-11-17T08:26:11.418Z,17.55
2022-11-17T08:28:39.319Z,17.77
2022-11-17T08:31:08.075Z,17.42
2022-11-17T08:33:36.069Z,18.25
2022-11-17T08:36:04.759Z,17.92
2022-11-17T08:38:32.292Z,17.45
2022-11-17T08:41:03.367Z,16.83
2022-11-17T08:43:31.237Z,17.42
2022-11-17T08:45:58.754Z,16.35
2022-11-17T08:48:26.221Z,17.33
2022-11-17T08:50:53.607Z,17.17
2022-11-17T08:53:23.409Z,17.92
2022-11-17T08:55:51.995Z,18.83
2022-11-17T08:58:19.410Z,17.13
2022-11-17T09:00:47.604Z,17.15
2022-11-17T09:03:15.431Z,14.35
2022-11-17T09:05:45.371Z,15.95
2022-11-17T09:11:10.158Z,16.25
2022-11-17T09:13:38.759Z,16.13
2022-11-17T09:16:09.096Z,16.95
2022-11-17T09:18:39.014Z,17.00
2022-11-17T09:21:10.381Z,17.55
2022-11-17T09:23:38.364Z,16.95
2022-11-17T09:26:08.048Z,17.02
2022-11-17T09:28:35.799Z,18.17
2022-11-17T09:31:21.868Z,20.92
2022-11-17T09:33:49.332Z,21.88
2022-11-17T09:36:17.271Z,21.80
2022-11-17T09:38:44.890Z,21.27
2022-11-17T09:41:24.269Z,20.67
2022-11-17T09:44:03.869Z,22.00
2022-11-17T09:47:03.168Z,24.38
2022-11-17T09:49:34.840Z,24.95
2022-11-17T09:52:34.834Z,28.10
2022-11-17T09:55:29.714Z,28.73
2022-11-17T09:58:15.384Z,27.70
2022-11-17T10:00:47.293Z,30.15
2022-11-17T10:03:25.018Z,30.63
2022-11-17T10:05:53.423Z,29.75
2022-11-17T10:08:37.750Z,29.45
2022-11-17T10:11:31.611Z,31.20
2022-11-17T10:14:15.841Z,28.17
2022-11-17T10:16:58.155Z,27.52
2022-11-17T10:19:27.963Z,26.20
2022-11-17T10:22:02.371Z,24.55
2022-11-17T10:24:44.255Z,24.23
2022-11-17T10:27:17.655Z,25.25
2022-11-17T10:30:01.886Z,25.33
2022-11-17T10:32:34.152Z,25.35
2022-11-17T10:35:18.262Z,25.83
2022-11-17T10:37:52.680Z,25.00
2022-11-17T10:40:25.346Z,25.27
2022-11-17T10:43:14.350Z,27.02
2022-11-17T10:46:09.702Z,25.15
2022-11-17T10:48:39.329Z,26.20
2022-11-17T10:51:22.478Z,25.23
2022-11-17T10:54:08.840Z,25.73
2022-11-17T10:56:43.663Z,25.23
2022-11-17T10:59:21.719Z,26.55
2022-11-17T11:01:52.930Z,28.58
2022-11-17T11:04:46.508Z,34.00
2022-11-17T11:07:24.186Z,32.92
2022-11-17T11:10:16.329Z,31.33
2022-11-17T11:13:02.665Z,30.67
2022-11-17T11:15:39.184Z,30.50
2022-11-17T11:18:16.111Z,32.50
2022-11-17T11:20:59.778Z,30.73
2022-11-17T11:23:56.081Z,29.67
2022-11-17T11:26:30.053Z,32.50
2022-11-17T11:29:05.399Z,31.70
2022-11-17T11:32:04.708Z,31.10
2022-11-17T11:34:47.087Z,29.13
2022-11-17T11:37:16.187Z,30.10
2022-11-17T11:40:09.846Z,27.83
2022-11-17T11:42:50.340Z,27.10
2022-11-17T11:56:42.717Z,22.52
2022-11-17T11:59:19.361Z,21.92
2022-11-17T12:02:02.771Z,20.52
2022-11-17T12:04:30.071Z,20.27
2022-11-17T12:07:33.138Z,19.88
2022-11-17T12:10:12.913Z,20.58
2022-11-17T12:12:44.266Z,20.15
2022-11-17T12:15:20.763Z,19.58
2022-11-17T12:18:11.560Z,20.30
2022-11-17T12:20:38.792Z,22.17
2022-11-17T12:23:47.700Z,22.88
2022-11-17T12:26:29.718Z,23.13
2022-11-17T12:29:27.016Z,24.35
2022-11-17T12:32:00.055Z,23.73
2022-11-17T12:34:30.649Z,21.50
2022-11-17T12:37:05.927Z,23.13
2022-11-17T12:39:59.303Z,21.60
2022-11-17T12:42:28.123Z,22.55
2022-11-17T12:45:10.732Z,23.60
2022-11-17T12:47:59.390Z,23.60
2022-11-17T12:51:26.001Z,25.73
2022-11-17T12:54:04.446Z,27.33
2022-11-17T12:56:40.765Z,26.55
2022-11-17T13:02:15.526Z,25.88
2022-11-17T13:04:50.955Z,26.13
2022-11-17T13:07:23.937Z,26.55
2022-11-17T13:09:53.274Z,26.02
2022-11-17T13:12:26.228Z,25.77
2022-11-17T13:14:59.426Z,28.38
2022-11-17T13:17:32.986Z,27.80
2022-11-17T13:20:25.231Z,26.58
2022-11-17T13:23:00.817Z,27.48
2022-11-17T13:25:28.313Z,28.45
2022-11-17T13:28:01.240Z,28.25
2022-11-17T13:30:32.858Z,26.85
2022-11-17T13:33:03.093Z,28.20
2022-11-17T13:35:33.361Z,27.80
2022-11-17T13:38:02.352Z,28.70
2022-11-17T13:40:30.681Z,29.80
2022-11-17T13:42:58.938Z,28.27
2022-11-17T13:45:27.673Z,28.48
2022-11-17T13:47:55.325Z,28.42
2022-11-17T13:50:31.446Z,30.05
2022-11-17T13:53:00.447Z,29.52
2022-11-17T13:55:28.359Z,28.25
2022-11-17T13:58:02.858Z,27.25
2022-11-17T14:00:31.726Z,28.08
2022-11-17T14:03:04.762Z,26.65
2022-11-17T14:05:33.461Z,27.00
2022-11-17T14:08:31.868Z,24.83
2022-11-17T14:11:26.216Z,26.20
2022-11-17T14:13:59.049Z,25.92
2022-11-17T14:16:37.521Z,25.25
2022-11-17T14:19:06.420Z,21.63
2022-11-17T14:21:33.869Z,22.85
2022-11-17T14:24:06.435Z,22.90
2022-11-17T14:26:34.040Z,22.33
2022-11-17T14:29:04.821Z,22.17
2022-11-17T14:31:32.154Z,24.02
2022-11-17T14:33:59.856Z,22.83
2022-11-17T14:36:27.401Z,23.40
2022-11-17T14:38:54.923Z,23.15
2022-11-17T14:41:22.265Z,23.98
2022-11-17T14:43:51.194Z,24.33
2022-11-17T14:46:24.559Z,23.90
2022-11-17T14:48:52.649Z,24.00
2022-11-17T14:51:20.783Z,25.65
2022-11-17T14:53:48.584Z,25.70
2022-11-17T14:56:18.123Z,25.13
2022-11-17T14:58:47.188Z,25.35
2022-11-17T15:01:19.888Z,24.02
2022-11-17T15:03:47.341Z,26.00
2022-11-17T15:06:19.371Z,26.10
2022-11-17T15:08:48.361Z,28.10
2022-11-17T15:11:17.880Z,29.17
2022-11-17T15:13:45.172Z,29.83
2022-11-17T15:16:12.531Z,30.48
2022-11-17T15:18:39.796Z,31.15
2022-11-17T15:21:09.627Z,32.45
2022-11-17T15:23:38.527Z,30.60
2022-11-17T15:26:08.338Z,32.05
2022-11-17T15:28:35.786Z,32.28
2022-11-17T15:31:10.338Z,31.30
2022-11-17T15:33:40.614Z,29.98
2022-11-17T15:36:10.283Z,29.95
2022-11-17T15:38:38.690Z,27.38
2022-11-17T15:41:07.468Z,28.27
2022-11-17T15:43:37.147Z,29.52
2022-11-17T15:46:16.705Z,28.92
2022-11-17T15:48:45.981Z,29.08
2022-11-17T15:51:20.963Z,30.35
2022-11-17T15:53:49.974Z,31.90
2022-11-17T15:56:23.004Z,33.00
2022-11-17T15:58:56.682Z,35.13
2022-11-17T16:01:24.829Z,34.92
2022-11-17T16:03:56.888Z,36.25
2022-11-17T16:06:24.297Z,34.83
2022-11-17T16:08:51.632Z,35.45
2022-11-17T16:11:19.254Z,36.33
2022-11-17T16:13:46.886Z,37.15
2022-11-17T16:16:15.716Z,36.58
2022-11-17T16:18:43.101Z,37.17
2022-11-17T16:21:12.583Z,34.92
2022-11-17T16:23:48.582Z,36.20
2022-11-17T16:26:17.644Z,36.03
2022-11-17T16:28:46.716Z,37.03
2022-11-17T16:31:22.972Z,39.05
2022-11-17T16:36:20.268Z,42.05
2022-11-17T16:39:01.325Z,39.13
2022-11-17T16:41:32.686Z,40.45
2022-11-17T16:44:00.899Z,38.00
2022-11-17T16:46:30.558Z,39.53
2022-11-17T16:49:02.244Z,38.03
2022-11-17T16:51:30.173Z,36.70
2022-11-17T16:54:03.298Z,39.80
2022-11-17T16:56:31.647Z,37.63
2022-11-17T16:58:59.231Z,39.28
2022-11-17T17:01:30.750Z,39.58
2022-11-17T17:04:00.508Z,41.22
2022-11-17T17:06:28.241Z,40.40
2022-11-17T17:09:01.110Z,39.20
2022-11-17T17:11:31.438Z,38.80
2022-11-17T17:14:00.310Z,39.75
2022-11-17T17:16:27.624Z,37.65
2022-11-17T17:19:00.022Z,38.75
2022-11-17T17:21:28.955Z,37.78
2022-11-17T17:23:56.997Z,37.80
2022-11-17T17:26:26.483Z,38.05
2022-11-17T17:28:55.831Z,37.67
2022-11-17T17:31:24.425Z,38.15
2022-11-17T17:33:52.336Z,36.95
2022-11-17T17:36:25.009Z,38.63
2022-11-17T17:38:56.276Z,37.97
2022-11-17T17:41:29.435Z,37.63
2022-11-17T17:43:59.531Z,36.55
2022-11-17T17:46:29.753Z,37.65
2022-11-17T17:48:58.092Z,39.15
2022-11-17T17:51:27.334Z,38.05
2022-11-17T17:53:57.915Z,38.17
2022-11-17T17:56:25.506Z,36.63
2022-11-17T17:58:56.688Z,39.30
2022-11-17T18:01:29.275Z,35.85
2022-11-17T18:04:01.127Z,35.70
2022-11-17T18:06:28.657Z,37.55
2022-11-17T18:08:57.796Z,38.67
2022-11-17T18:11:25.958Z,38.25
2022-11-17T18:13:54.336Z,37.88
2022-11-17T18:16:27.087Z,38.78
2022-11-17T18:19:06.358Z,39.85
2022-11-17T18:21:34.002Z,38.85
2022-11-17T18:24:02.383Z,40.72
2022-11-17T18:26:31.916Z,40.83
2022-11-17T18:29:00.869Z,39.78
2022-11-17T18:31:30.393Z,41.75
2022-11-17T18:33:59.909Z,40.10
2022-11-17T18:36:28.819Z,43.80
2022-11-17T18:38:58.615Z,46.55
2022-11-17T18:41:27.378Z,42.22
2022-11-17T18:43:55.342Z,40.15
2022-11-17T18:46:25.790Z,41.78
2022-11-17T18:48:54.026Z,40.45
2022-11-17T18:51:24.262Z,41.60
2022-11-17T18:53:54.544Z,42.15
2022-11-17T18:56:25.248Z,42.63
2022-11-17T18:58:52.852Z,43.65
2022-11-17T19:01:25.704Z,46.35
2022-11-17T19:03:54.941Z,44.95
2022-11-17T19:06:24.883Z,43.67
2022-11-17T19:08:52.906Z,44.55
2022-11-17T19:11:22.045Z,43.90
2022-11-17T19:13:49.754Z,61.08
2022-11-17T19:16:19.935Z,51.05
2022-11-17T19:18:49.000Z,44.92
2022-11-17T19:21:21.836Z,59.28
2022-11-17T19:23:51.843Z,48.30
2022-11-17T19:26:31.182Z,44.72
2022-11-17T19:29:15.999Z,45.92
2022-11-17T19:31:45.307Z,45.25
2022-11-17T19:34:12.941Z,44.13
2022-11-17T19:36:41.703Z,44.42
2022-11-17T19:39:11.485Z,45.88
2022-11-17T19:41:39.958Z,58.63
2022-11-17T19:44:08.740Z,64.45
2022-11-17T19:46:36.401Z,46.25
2022-11-17T19:49:05.830Z,44.10
2022-11-17T19:51:36.632Z,58.95
2022-11-17T19:54:07.853Z,50.97
2022-11-17T19:56:35.675Z,46.90
2022-11-17T19:59:03.546Z,48.00
2022-11-17T20:01:31.873Z,47.83
2022-11-17T20:04:00.574Z,47.42
2022-11-17T20:06:33.901Z,48.95
2022-11-17T20:09:01.288Z,49.22
2022-11-17T20:11:28.985Z,48.80
2022-11-17T20:13:56.586Z,51.17
2022-11-17T20:16:26.260Z,46.60
2022-11-17T20:18:55.755Z,47.90
2022-11-17T20:21:24.213Z,46.97
2022-11-17T20:23:51.831Z,48.83
2022-11-17T20:26:24.715Z,46.42
2022-11-17T20:28:53.228Z,48.25
2022-11-17T20:31:24.158Z,46.05
2022-11-17T20:33:53.763Z,47.67
2022-11-17T20:36:21.846Z,49.15
2022-11-17T20:39:00.743Z,46.28
2022-11-17T20:41:28.510Z,46.17
2022-11-17T20:43:57.613Z,45.78
2022-11-17T20:46:25.330Z,47.25
2022-11-17T20:48:52.823Z,47.47
2022-11-17T20:51:22.436Z,45.95
2022-11-17T20:53:52.978Z,46.22
2022-11-17T20:56:23.668Z,45.78
2022-11-17T20:58:51.093Z,45.10
2022-11-17T21:01:21.345Z,44.60
2022-11-17T21:03:49.596Z,42.00
2022-11-17T21:06:18.209Z,44.90
2022-11-17T21:08:46.473Z,42.92
2022-11-17T21:11:36.709Z,42.10
2022-11-17T21:14:09.516Z,40.55
2022-11-17T21:16:38.662Z,42.28
2022-11-17T21:19:06.939Z,43.05
2022-11-17T21:21:37.714Z,45.13
2022-11-17T21:24:05.775Z,45.50
2022-11-17T21:26:34.058Z,51.53
2022-11-17T21:29:06.410Z,50.00
2022-11-17T21:31:36.445Z,48.53
2022-11-17T21:34:09.141Z,44.38
2022-11-17T21:36:36.545Z,47.13
2022-11-17T21:39:04.421Z,48.05
2022-11-17T21:41:38.698Z,47.85
2022-11-17T21:44:06.351Z,44.05
2022-11-17T21:46:35.186Z,45.50
2022-11-17T21:49:02.940Z,47.88
2022-11-17T21:51:33.717Z,47.42
2022-11-17T21:54:04.632Z,48.25
2022-11-17T21:56:32.328Z,46.55
2022-11-17T21:59:02.380Z,46.17
2022-11-17T22:01:30.932Z,47.47
2022-11-17T22:04:01.648Z,45.55
2022-11-17T22:06:29.900Z,44.15
2022-11-17T22:09:24.299Z,44.67
2022-11-17T22:11:52.142Z,45.17
2022-11-17T22:14:20.301Z,45.63
2022-11-17T22:16:49.739Z,47.47
2022-11-17T22:19:18.428Z,47.38
2022-11-17T22:21:48.277Z,45.17
2022-11-17T22:24:15.783Z,48.53
2022-11-17T22:26:44.255Z,47.97
2022-11-17T22:29:14.119Z,52.88
2022-11-17T22:31:42.223Z,48.08
2022-11-17T22:34:09.637Z,48.33
2022-11-17T22:36:37.494Z,48.72
2022-11-17T22:39:05.433Z,49.83
2022-11-17T22:41:32.733Z,48.67
2022-11-17T22:44:00.443Z,49.60
2022-11-17T22:46:28.661Z,50.90
2022-11-17T22:48:56.523Z,49.63
2022-11-17T22:51:43.264Z,50.15
2022-11-17T22:56:37.775Z,49.75
2022-11-17T22:59:05.255Z,49.55
2022-11-17T23:01:32.566Z,49.95
2022-11-17T23:04:02.413Z,47.78
2022-11-17T23:06:30.793Z,47.20
2022-11-17T23:08:58.975Z,49.05
2022-11-17T23:11:36.917Z,47.92
2022-11-17T23:14:07.837Z,46.08
2022-11-17T23:16:36.803Z,46.22
2022-11-17T23:19:05.609Z,44.90
2022-11-17T23:21:33.417Z,46.13
2022-11-17T23:24:01.399Z,43.60
2022-11-17T23:26:28.955Z,43.83
2022-11-17T23:28:58.294Z,42.15
2022-11-17T23:31:28.010Z,44.50
2022-11-17T23:33:55.786Z,41.53
2022-11-17T23:36:23.839Z,40.30
2022-11-17T23:38:52.066Z,39.20
2022-11-17T23:41:20.400Z,38.78
2022-11-17T23:43:52.305Z,40.17
2022-11-17T23:46:26.340Z,39.65
2022-11-17T23:48:54.737Z,39.97
2022-11-17T23:51:23.704Z,40.65
2022-11-17T23:53:51.604Z,37.15
2022-11-17T23:56:22.634Z,38.13
2022-11-17T23:58:59.136Z,37.85
